createdAt,value
2023-02-12T00:02:00.558Z,1.80
2023-02-12T00:04:31.977Z,1.80
2023-02-12T00:07:02.497Z,1.80
2023-02-12T00:09:36.657Z,1.80
2023-02-12T00:12:07.177Z,1.90
2023-02-12T00:14:39.636Z,1.90
2023-02-12T00:17:10.293Z,1.80
2023-02-12T00:19:41.475Z,1.80
2023-02-12T00:22:12.583Z,1.80
2023-02-12T00:24:45.967Z,1.80
2023-02-12T00:27:16.830Z,1.80
2023-02-12T00:29:47.881Z,1.80
2023-02-12T00:32:20.061Z,1.70
2023-02-12T00:34:51.424Z,1.70
2023-02-12T00:37:22.155Z,1.70
2023-02-12T00:39:56.313Z,1.70
2023-02-12T00:42:27.265Z,1.70
2023-02-12T00:45:01.167Z,1.60
2023-02-12T00:47:34.614Z,1.60
2023-02-12T00:50:05.438Z,1.50
2023-02-12T00:52:36.808Z,1.50
2023-02-12T00:55:11.368Z,1.50
2023-02-12T00:57:42.365Z,1.40
2023-02-12T01:00:15.785Z,1.40
2023-02-12T01:02:47.313Z,1.40
2023-02-12T01:05:20.130Z,1.30
2023-02-12T01:07:52.584Z,1.30
2023-02-12T01:10:26.638Z,1.30
2023-02-12T01:12:57.157Z,1.30
2023-02-12T01:15:28.347Z,1.30
2023-02-12T01:17:58.886Z,1.30
2023-02-12T01:20:32.123Z,1.20
2023-02-12T01:23:02.734Z,1.20
2023-02-12T01:25:36.086Z,1.20
2023-02-12T01:28:08.352Z,1.20
2023-02-12T01:30:39.208Z,1.20
2023-02-12T01:33:09.660Z,1.20
2023-02-12T01:35:40.797Z,1.10
2023-02-12T01:38:11.365Z,1.10
2023-02-12T01:40:45.057Z,1.10
2023-02-12T01:43:15.910Z,1.10
2023-02-12T01:45:48.825Z,1.20
2023-02-12T01:48:20.505Z,1.10
2023-02-12T01:50:52.015Z,1.10
2023-02-12T01:53:23.212Z,1.10
2023-02-12T01:55:59.418Z,1.10
2023-02-12T01:58:31.177Z,1.10
2023-02-12T02:01:05.761Z,1.10
2023-02-12T02:03:37.037Z,1.00
2023-02-12T02:06:11.713Z,1.00
2023-02-12T02:08:44.460Z,1.00
2023-02-12T02:11:30.588Z,0.90
2023-02-12T02:14:18.861Z,0.90
2023-02-12T02:16:52.048Z,0.90
2023-02-12T02:19:31.441Z,0.80
2023-02-12T02:22:20.065Z,0.80
2023-02-12T02:25:11.237Z,0.70
2023-02-12T02:27:54.910Z,0.70
2023-02-12T02:30:49.042Z,0.70
2023-02-12T02:33:29.400Z,0.60
2023-02-12T02:36:04.490Z,0.60
2023-02-12T02:38:37.641Z,0.50
2023-02-12T02:41:10.394Z,0.50
2023-02-12T02:43:43.140Z,0.40
2023-02-12T02:46:19.197Z,0.30
2023-02-12T02:48:55.035Z,0.20
2023-02-12T02:51:27.260Z,0.10
2023-02-12T02:54:00.515Z,0.10
2023-02-12T02:56:31.464Z,0.00
2023-02-12T02:59:04.440Z,0.00
2023-02-12T03:01:37.978Z,-0.10
2023-02-12T03:04:13.305Z,-0.10
2023-02-12T03:06:47.312Z,-0.20
2023-02-12T03:09:20.083Z,-0.20
2023-02-12T03:11:51.134Z,-0.20
2023-02-12T03:14:24.357Z,-0.20
2023-02-12T03:16:57.629Z,-0.20
2023-02-12T03:19:33.156Z,-0.20
2023-02-12T03:22:04.924Z,-0.20
2023-02-12T03:24:39.097Z,-0.30
2023-02-12T03:27:11.805Z,-0.30
2023-02-12T03:29:42.600Z,-0.30
2023-02-12T03:32:18.892Z,-0.30
2023-02-12T03:34:55.625Z,-0.40
2023-02-12T03:37:30.023Z,-0.40
2023-02-12T03:40:04.094Z,-0.40
2023-02-12T03:42:37.348Z,-0.50
2023-02-12T03:45:12.395Z,-0.50
2023-02-12T03:47:47.313Z,-0.50
2023-02-12T03:50:24.939Z,-0.60
2023-02-12T03:52:55.405Z,-0.50
2023-02-12T03:55:26.552Z,-0.50
2023-02-12T03:58:01.078Z,-0.50
2023-02-12T04:00:32.016Z,-0.50
2023-02-12T04:03:02.950Z,-0.40
2023-02-12T04:05:36.440Z,-0.40
2023-02-12T04:08:09.868Z,-0.50
2023-02-12T04:10:45.184Z,-0.50
2023-02-12T04:13:20.136Z,-0.50
2023-02-12T04:16:00.396Z,-0.50
2023-02-12T04:18:37.576Z,-0.50
2023-02-12T04:21:16.634Z,-0.40
2023-02-12T04:23:53.105Z,-0.40
2023-02-12T04:26:30.838Z,-0.40
2023-02-12T04:29:08.393Z,-0.40
2023-02-12T04:31:41.827Z,-0.40
2023-02-12T04:34:16.606Z,-0.40
2023-02-12T04:36:54.542Z,-0.50
2023-02-12T04:39:26.139Z,-0.50
2023-02-12T04:41:59.495Z,-0.50
2023-02-12T04:44:31.037Z,-0.50
2023-02-12T04:47:01.806Z,-0.50
2023-02-12T04:49:32.633Z,-0.50
2023-02-12T04:52:06.087Z,-0.50
2023-02-12T04:54:36.529Z,-0.60
2023-02-12T04:57:08.464Z,-0.50
2023-02-12T04:59:39.464Z,-0.60
2023-02-12T05:02:10.440Z,-0.60
2023-02-12T05:04:40.900Z,-0.60
2023-02-12T05:07:14.798Z,-0.60
2023-02-12T05:09:45.321Z,-0.60
2023-02-12T05:12:16.608Z,-0.60
2023-02-12T05:14:48.940Z,-0.60
2023-02-12T05:17:20.119Z,-0.60
2023-02-12T05:19:51.173Z,-0.70
2023-02-12T05:22:25.068Z,-0.60
2023-02-12T05:24:55.463Z,-0.70
2023-02-12T05:27:26.558Z,-0.70
2023-02-12T05:29:57.214Z,-0.70
2023-02-12T05:32:28.175Z,-0.80
2023-02-12T05:34:58.640Z,-0.80
2023-02-12T05:37:32.314Z,-0.80
2023-02-12T05:40:03.378Z,-0.90
2023-02-12T05:42:36.549Z,-0.80
2023-02-12T05:45:07.596Z,-0.80
2023-02-12T05:47:38.329Z,-0.90
2023-02-12T05:50:09.654Z,-0.90
2023-02-12T05:52:45.397Z,-0.90
2023-02-12T05:55:16.242Z,-1.00
2023-02-12T05:57:47.386Z,-1.00
2023-02-12T06:00:18.661Z,-1.00
2023-02-12T06:02:50.789Z,-1.00
2023-02-12T06:05:24.157Z,-1.00
2023-02-12T06:07:57.738Z,-1.00
2023-02-12T06:10:28.398Z,-1.00
2023-02-12T06:13:01.013Z,-1.00
2023-02-12T06:15:31.801Z,-1.10
2023-02-12T06:18:02.540Z,-1.10
2023-02-12T06:20:32.955Z,-1.10
2023-02-12T06:23:06.263Z,-1.10
2023-02-12T06:25:38.424Z,-1.10
2023-02-12T06:28:09.409Z,-1.00
2023-02-12T06:30:39.972Z,-1.10
2023-02-12T06:33:13.593Z,-1.00
2023-02-12T06:35:44.476Z,-1.00
2023-02-12T06:38:18.328Z,-1.00
2023-02-12T06:40:49.870Z,-1.00
2023-02-12T06:43:20.758Z,-1.00
2023-02-12T06:45:51.551Z,-1.00
2023-02-12T06:48:22.523Z,-0.90
2023-02-12T06:50:53.012Z,-0.90
2023-02-12T06:53:26.514Z,-0.80
2023-02-12T06:55:58.049Z,-0.70
2023-02-12T06:58:29.758Z,-0.60
2023-02-12T07:01:00.333Z,-0.60
2023-02-12T07:03:31.147Z,-0.50
2023-02-12T07:06:01.543Z,-0.50
2023-02-12T07:08:35.049Z,-0.50
2023-02-12T07:11:05.826Z,-0.40
2023-02-12T07:13:37.249Z,-0.40
2023-02-12T07:16:09.616Z,-0.40
2023-02-12T07:18:40.759Z,-0.40
2023-02-12T07:21:12.384Z,-0.30
2023-02-12T07:23:51.024Z,-0.30
2023-02-12T07:26:22.608Z,-0.20
2023-02-12T07:28:54.182Z,-0.20
2023-02-12T07:31:26.147Z,-0.20
2023-02-12T07:33:57.640Z,-0.20
2023-02-12T07:36:29.318Z,-0.10
2023-02-12T07:39:02.974Z,0.00
2023-02-12T07:41:34.531Z,0.00
2023-02-12T07:44:07.764Z,0.10
2023-02-12T07:46:40.171Z,0.10
2023-02-12T07:49:12.290Z,0.10
2023-02-12T07:51:43.719Z,0.20
2023-02-12T07:54:18.060Z,0.30
2023-02-12T07:56:52.452Z,0.30
2023-02-12T07:59:24.433Z,0.40
2023-02-12T08:01:56.535Z,0.40
2023-02-12T08:04:28.206Z,0.30
2023-02-12T08:06:59.140Z,0.30
2023-02-12T08:09:33.905Z,0.40
2023-02-12T08:12:04.299Z,0.40
2023-02-12T08:14:35.889Z,0.40
2023-02-12T08:17:06.777Z,0.50
2023-02-12T08:19:37.967Z,0.50
2023-02-12T08:22:09.458Z,0.60
2023-02-12T08:24:43.555Z,0.60
2023-02-12T08:27:14.408Z,0.60
2023-02-12T08:29:46.258Z,0.60
2023-02-12T08:32:17.798Z,0.70
2023-02-12T08:34:49.475Z,0.70
2023-02-12T08:37:20.676Z,0.70
2023-02-12T08:39:54.219Z,0.60
2023-02-12T08:42:26.860Z,0.70
2023-02-12T08:44:59.009Z,0.70
2023-02-12T08:47:31.396Z,0.90
2023-02-12T08:50:05.702Z,1.00
2023-02-12T08:52:37.711Z,1.00
2023-02-12T08:55:12.897Z,1.00
2023-02-12T08:57:45.140Z,1.00
2023-02-12T09:00:17.574Z,1.10
2023-02-12T09:02:51.449Z,1.20
2023-02-12T09:05:23.216Z,1.20
2023-02-12T09:07:55.581Z,1.30
2023-02-12T09:10:29.241Z,1.20
2023-02-12T09:12:59.786Z,1.30
2023-02-12T09:15:30.946Z,1.40
2023-02-12T09:18:04.413Z,1.40
2023-02-12T09:20:36.748Z,1.50
2023-02-12T09:23:07.514Z,1.60
2023-02-12T09:25:42.466Z,1.60
2023-02-12T09:28:13.942Z,1.60
2023-02-12T09:30:45.472Z,1.60
2023-02-12T09:33:15.992Z,1.70
2023-02-12T09:35:48.073Z,1.60
2023-02-12T09:38:19.224Z,1.60
2023-02-12T09:41:01.501Z,1.60
2023-02-12T09:43:35.111Z,1.70
2023-02-12T09:46:08.062Z,1.70
2023-02-12T09:48:44.915Z,1.70
2023-02-12T09:51:16.055Z,1.80
2023-02-12T09:53:49.608Z,1.90
2023-02-12T09:56:26.145Z,2.00
2023-02-12T09:59:03.113Z,2.00
2023-02-12T10:01:34.432Z,2.10
2023-02-12T10:04:05.321Z,2.10
2023-02-12T10:06:40.184Z,2.20
2023-02-12T10:09:18.054Z,2.30
2023-02-12T10:11:57.433Z,2.40
2023-02-12T10:14:42.613Z,2.40
2023-02-12T10:17:18.521Z,2.50
2023-02-12T10:20:06.855Z,2.50
2023-02-12T10:22:55.879Z,2.60
2023-02-12T10:25:29.121Z,2.60
2023-02-12T10:28:03.764Z,2.70
2023-02-12T10:30:40.571Z,2.70
2023-02-12T10:33:16.346Z,2.80
2023-02-12T10:35:50.070Z,2.80
2023-02-12T10:38:23.283Z,2.80
2023-02-12T10:40:55.437Z,2.90
2023-02-12T10:43:29.014Z,2.90
2023-02-12T10:46:00.111Z,3.00
2023-02-12T10:48:34.952Z,3.00
2023-02-12T10:51:23.806Z,3.10
2023-02-12T10:53:57.109Z,3.10
2023-02-12T10:56:29.574Z,3.10
2023-02-12T10:59:04.019Z,3.10
2023-02-12T11:01:36.111Z,3.20
2023-02-12T11:04:23.423Z,3.20
2023-02-12T11:07:00.784Z,3.20
2023-02-12T11:09:32.286Z,3.20
2023-02-12T11:12:03.847Z,3.30
2023-02-12T11:14:38.457Z,3.30
2023-02-12T11:17:09.190Z,3.30
2023-02-12T11:19:40.228Z,3.30
2023-02-12T11:22:14.779Z,3.40
2023-02-12T11:24:45.792Z,3.40
2023-02-12T11:27:23.525Z,3.50
2023-02-12T11:30:09.854Z,3.50
2023-02-12T11:32:44.436Z,3.60
2023-02-12T11:35:19.004Z,3.60
2023-02-12T11:37:49.972Z,3.60
2023-02-12T11:40:25.376Z,3.60
2023-02-12T11:42:57.846Z,3.60
2023-02-12T11:45:33.487Z,3.60
2023-02-12T11:48:14.450Z,3.60
2023-02-12T11:50:52.176Z,3.60
2023-02-12T11:53:27.952Z,3.60
2023-02-12T11:56:04.751Z,3.60
2023-02-12T11:58:36.143Z,3.70
2023-02-12T12:01:09.085Z,3.70
2023-02-12T12:03:45.966Z,3.70
2023-02-12T12:06:21.724Z,3.80
2023-02-12T12:08:55.079Z,3.90
2023-02-12T12:11:28.897Z,3.90
2023-02-12T12:14:02.681Z,4.00
2023-02-12T12:16:49.488Z,4.00
2023-02-12T12:19:40.912Z,4.00
2023-02-12T12:22:17.508Z,4.00
2023-02-12T12:24:55.335Z,4.00
2023-02-12T12:27:49.173Z,4.00
2023-02-12T12:30:23.457Z,4.10
2023-02-12T12:32:55.902Z,4.00
2023-02-12T12:35:32.826Z,4.10
2023-02-12T12:38:05.863Z,4.10
2023-02-12T12:40:42.048Z,4.10
2023-02-12T12:43:16.389Z,4.10
2023-02-12T12:46:01.382Z,4.10
2023-02-12T12:48:41.050Z,4.10
2023-02-12T12:51:25.372Z,4.10
2023-02-12T12:54:02.286Z,4.10
2023-02-12T12:56:51.548Z,4.10
2023-02-12T12:59:38.374Z,4.10
2023-02-12T13:02:26.679Z,4.20
2023-02-12T13:05:16.419Z,4.20
2023-02-12T13:07:58.378Z,4.20
2023-02-12T13:10:44.210Z,4.20
2023-02-12T13:13:23.516Z,4.20
2023-02-12T13:15:58.334Z,4.10
2023-02-12T13:21:21.756Z,4.10
2023-02-12T13:23:57.699Z,4.20
2023-02-12T13:26:33.922Z,4.20
2023-02-12T13:29:10.318Z,4.20
2023-02-12T13:31:44.794Z,4.20
2023-02-12T13:34:18.084Z,4.10
2023-02-12T13:36:51.188Z,4.10
2023-02-12T13:39:28.444Z,4.10
2023-02-12T13:42:03.100Z,4.10
2023-02-12T13:44:39.799Z,4.20
2023-02-12T13:47:15.061Z,4.10
2023-02-12T13:49:48.556Z,4.10
2023-02-12T13:52:22.699Z,4.10
2023-02-12T13:55:00.204Z,4.10
2023-02-12T13:57:31.127Z,4.10
2023-02-12T14:00:01.746Z,4.10
2023-02-12T14:02:49.613Z,4.10
2023-02-12T14:05:23.573Z,4.00
2023-02-12T14:07:56.357Z,4.10
2023-02-12T14:10:32.047Z,4.10
2023-02-12T14:13:28.373Z,4.00
2023-02-12T14:16:00.089Z,4.00
2023-02-12T14:18:32.933Z,4.00
2023-02-12T14:21:19.569Z,4.00
2023-02-12T14:23:51.033Z,4.10
2023-02-12T14:26:25.181Z,4.10
2023-02-12T14:28:57.810Z,4.10
2023-02-12T14:31:37.969Z,4.10
2023-02-12T14:34:23.952Z,4.10
2023-02-12T14:37:12.910Z,4.10
2023-02-12T14:39:43.850Z,4.10
2023-02-12T14:42:29.378Z,4.10
2023-02-12T14:45:02.935Z,4.10
2023-02-12T14:47:48.246Z,4.10
2023-02-12T14:50:23.237Z,4.10
2023-02-12T14:53:00.826Z,4.00
2023-02-12T14:55:34.531Z,4.00
2023-02-12T14:58:07.709Z,4.00
2023-02-12T15:00:42.189Z,4.00
2023-02-12T15:03:31.085Z,3.90
2023-02-12T15:06:07.427Z,3.90
2023-02-12T15:08:43.334Z,3.90
2023-02-12T15:11:26.647Z,3.90
2023-02-12T15:13:58.661Z,3.80
2023-02-12T15:16:45.029Z,3.80
2023-02-12T15:19:28.142Z,3.70
2023-02-12T15:21:59.262Z,3.70
2023-02-12T15:24:30.396Z,3.70
2023-02-12T15:27:05.159Z,3.70
2023-02-12T15:29:39.416Z,3.60
2023-02-12T15:32:19.086Z,3.60
2023-02-12T15:34:54.827Z,3.60
2023-02-12T15:37:27.792Z,3.50
2023-02-12T15:40:00.603Z,3.50
2023-02-12T15:42:34.430Z,3.50
2023-02-12T15:45:21.223Z,3.40
2023-02-12T15:48:02.874Z,3.40
2023-02-12T15:50:36.637Z,3.30
2023-02-12T15:53:07.715Z,3.30
2023-02-12T15:55:41.118Z,3.30
2023-02-12T15:58:22.629Z,3.30
2023-02-12T16:00:53.960Z,3.30
2023-02-12T16:03:30.454Z,3.30
2023-02-12T16:06:03.289Z,3.20
2023-02-12T16:08:36.139Z,3.20
2023-02-12T16:11:14.108Z,3.10
2023-02-12T16:13:49.507Z,3.10
2023-02-12T16:16:29.293Z,3.10
2023-02-12T16:19:10.634Z,3.00
2023-02-12T16:21:47.672Z,3.00
2023-02-12T16:24:25.513Z,3.00
2023-02-12T16:26:57.717Z,2.90
2023-02-12T16:29:28.861Z,3.00
2023-02-12T16:32:00.733Z,2.90
2023-02-12T16:34:35.881Z,2.90
2023-02-12T16:37:06.908Z,2.90
2023-02-12T16:39:52.914Z,2.90
2023-02-12T16:42:25.713Z,2.80
2023-02-12T16:44:57.208Z,2.80
2023-02-12T16:47:28.372Z,2.80
2023-02-12T16:50:02.698Z,2.70
2023-02-12T16:52:38.545Z,2.70
2023-02-12T16:55:14.712Z,2.70
2023-02-12T16:57:45.229Z,2.70
2023-02-12T17:00:18.873Z,2.70
2023-02-12T17:02:50.016Z,2.60
2023-02-12T17:05:24.329Z,2.60
2023-02-12T17:07:55.545Z,2.60
2023-02-12T17:10:27.444Z,2.60
2023-02-12T17:12:57.892Z,2.60
2023-02-12T17:15:31.933Z,2.60
2023-02-12T17:18:02.945Z,2.60
2023-02-12T17:20:38.601Z,2.50
2023-02-12T17:23:10.077Z,2.50
2023-02-12T17:25:41.571Z,2.50
2023-02-12T17:28:12.701Z,2.50
2023-02-12T17:30:44.355Z,2.50
2023-02-12T17:33:14.879Z,2.40
2023-02-12T17:35:48.727Z,2.40
2023-02-12T17:38:20.154Z,2.40
2023-02-12T17:40:50.932Z,2.40
2023-02-12T17:43:21.437Z,2.30
2023-02-12T17:45:53.601Z,2.30
2023-02-12T17:48:25.221Z,2.30
2023-02-12T17:50:59.476Z,2.30
2023-02-12T17:53:30.769Z,2.30
2023-02-12T17:56:01.889Z,2.30
2023-02-12T17:58:32.626Z,2.30
2023-02-12T18:01:06.921Z,2.30
2023-02-12T18:03:38.571Z,2.30
2023-02-12T18:06:14.334Z,2.30
2023-02-12T18:08:44.883Z,2.20
2023-02-12T18:11:19.424Z,2.20
2023-02-12T18:13:50.031Z,2.20
2023-02-12T18:16:21.296Z,2.20
2023-02-12T18:18:54.920Z,2.20
2023-02-12T18:21:28.388Z,2.20
2023-02-12T18:23:59.660Z,2.30
2023-02-12T18:26:30.517Z,2.30
2023-02-12T18:29:01.438Z,2.30
2023-02-12T18:31:32.808Z,2.30
2023-02-12T18:34:03.347Z,2.40
2023-02-12T18:36:38.710Z,2.40
2023-02-12T18:39:12.300Z,2.40
2023-02-12T18:41:43.818Z,2.50
2023-02-12T18:44:14.936Z,2.50
2023-02-12T18:46:46.412Z,2.50
2023-02-12T18:49:16.947Z,2.50
2023-02-12T18:51:51.029Z,2.50
2023-02-12T18:54:21.667Z,2.50
2023-02-12T18:56:53.229Z,2.60
2023-02-12T18:59:26.953Z,2.60
2023-02-12T19:01:58.609Z,2.60
2023-02-12T19:04:30.368Z,2.60
2023-02-12T19:07:04.521Z,2.70
2023-02-12T19:09:35.242Z,2.70
2023-02-12T19:12:07.180Z,2.70
2023-02-12T19:14:38.006Z,2.70
2023-02-12T19:17:08.730Z,2.80
2023-02-12T19:19:40.024Z,2.80
2023-02-12T19:22:13.420Z,2.80
2023-02-12T19:24:46.968Z,2.80
2023-02-12T19:27:18.640Z,2.90
2023-02-12T19:29:49.124Z,2.90
2023-02-12T19:32:24.115Z,2.90
2023-02-12T19:34:54.842Z,2.90
2023-02-12T19:37:28.325Z,2.90
2023-02-12T19:39:58.793Z,3.00
2023-02-12T19:42:31.249Z,3.00
2023-02-12T19:45:01.724Z,3.00
2023-02-12T19:47:32.674Z,3.00
2023-02-12T19:50:03.220Z,3.00
2023-02-12T19:52:36.608Z,3.00
2023-02-12T19:55:07.158Z,3.10
2023-02-12T19:57:38.796Z,3.10
2023-02-12T20:00:13.734Z,3.10
2023-02-12T20:02:44.821Z,3.10
2023-02-12T20:05:15.258Z,3.10
2023-02-12T20:07:49.092Z,3.20
2023-02-12T20:10:19.738Z,3.20
2023-02-12T20:12:50.587Z,3.20
2023-02-12T20:15:21.239Z,3.20
2023-02-12T20:17:52.433Z,3.20
2023-02-12T20:20:25.518Z,3.20
2023-02-12T20:22:59.459Z,3.20
2023-02-12T20:25:30.340Z,3.20
2023-02-12T20:28:01.219Z,3.20
2023-02-12T20:30:32.089Z,3.20
2023-02-12T20:33:02.874Z,3.20
2023-02-12T20:35:35.007Z,3.20
2023-02-12T20:38:11.268Z,3.20
2023-02-12T20:40:41.919Z,3.20
2023-02-12T20:43:13.305Z,3.20
2023-02-12T20:45:43.998Z,3.20
2023-02-12T20:48:14.861Z,3.20
2023-02-12T20:50:45.253Z,3.20
2023-02-12T20:53:19.310Z,3.20
2023-02-12T20:55:50.075Z,3.20
2023-02-12T20:58:20.889Z,3.20
2023-02-12T21:00:51.389Z,3.20
2023-02-12T21:03:22.555Z,3.20
2023-02-12T21:05:53.285Z,3.20
2023-02-12T21:08:26.844Z,3.20
2023-02-12T21:11:04.079Z,3.20
2023-02-12T21:13:35.226Z,3.20
2023-02-12T21:16:09.862Z,3.20
2023-02-12T21:18:40.665Z,3.30
2023-02-12T21:21:14.248Z,3.20
2023-02-12T21:23:47.682Z,3.20
2023-02-12T21:26:19.740Z,3.30
2023-02-12T21:28:51.756Z,3.30
2023-02-12T21:31:24.789Z,3.20
2023-02-12T21:33:56.392Z,3.30
2023-02-12T21:36:30.172Z,3.30
2023-02-12T21:39:03.869Z,3.30
2023-02-12T21:41:35.836Z,3.30
2023-02-12T21:44:08.089Z,3.30
2023-02-12T21:46:41.531Z,3.30
2023-02-12T21:49:13.944Z,3.30
2023-02-12T21:51:45.039Z,3.30
2023-02-12T21:54:18.758Z,3.40
2023-02-12T21:56:50.971Z,3.40
2023-02-12T21:59:23.038Z,3.40
2023-02-12T22:01:55.729Z,3.40
2023-02-12T22:04:27.082Z,3.40
2023-02-12T22:07:03.556Z,3.40
2023-02-12T22:09:38.120Z,3.50
2023-02-12T22:12:09.103Z,3.50
2023-02-12T22:14:40.088Z,3.50
2023-02-12T22:17:10.591Z,3.40
2023-02-12T22:19:42.345Z,3.40
2023-02-12T22:22:12.762Z,3.50
2023-02-12T22:24:46.167Z,3.50
2023-02-12T22:27:16.600Z,3.50
2023-02-12T22:29:48.007Z,3.40
2023-02-12T22:32:18.817Z,3.50
2023-02-12T22:34:50.331Z,3.50
2023-02-12T22:37:22.474Z,3.50
2023-02-12T22:39:56.169Z,3.50
2023-02-12T22:42:29.652Z,3.60
2023-02-12T22:45:04.482Z,3.60
2023-02-12T22:47:36.901Z,3.60
2023-02-12T22:50:10.866Z,3.60
2023-02-12T22:52:42.043Z,3.60
2023-02-12T22:55:16.311Z,3.60
2023-02-12T22:57:46.673Z,3.60
2023-02-12T23:00:18.826Z,3.60
2023-02-12T23:02:49.909Z,3.60
2023-02-12T23:05:21.139Z,3.60
2023-02-12T23:07:51.878Z,3.60
2023-02-12T23:10:27.498Z,3.70
2023-02-12T23:12:57.860Z,3.70
2023-02-12T23:15:29.622Z,3.70
2023-02-12T23:18:00.378Z,3.70
2023-02-12T23:20:32.007Z,3.70
2023-02-12T23:23:02.379Z,3.70
2023-02-12T23:25:38.333Z,3.80
2023-02-12T23:28:08.816Z,3.80
2023-02-12T23:30:39.957Z,3.80
2023-02-12T23:33:10.700Z,3.80
2023-02-12T23:35:41.665Z,3.80
2023-02-12T23:38:12.006Z,3.90
2023-02-12T23:40:45.603Z,3.90
2023-02-12T23:43:16.298Z,3.90
2023-02-12T23:45:47.608Z,3.90
2023-02-12T23:48:18.291Z,3.90
2023-02-12T23:50:50.034Z,3.90
2023-02-12T23:53:22.598Z,3.90
2023-02-12T23:55:56.102Z,4.00
2023-02-12T23:58:27.159Z,4.00
